Time;durP1;ratioP1;P1;durP2;ratioP2;P2;SDS_P1;SDS_P2;PMS_P1;PMS_P2;Temp;Humidity;BMP_temperature;BMP_pressure;BME280_temperature;BME280_humidity;BME280_pressure;Samples;Min_cycle;Max_cycle;Signal;HPM_P1;HPM_P2
2022/11/10 00:02:14;;;;;;;2.70;2.50;;;13.90;66.40;;;;;;21002;6703;115958;-89
2022/11/10 00:04:50;;;;;;;2.73;2.53;;;13.80;66.90;;;;;;21049;6707;117493;-88
2022/11/10 00:07:52;;;;;;;;;;;;;;;;;;;;;
2022/11/10 00:10:17;;;;;;;3.10;2.80;;;13.50;68.00;;;;;;20913;6705;125607;-89
2022/11/10 00:12:53;;;;;;;3.30;2.87;;;13.40;68.50;;;;;;20984;6715;116349;-89
2022/11/10 00:18:24;;;;;;;3.13;2.77;;;13.20;69.10;;;;;;21034;6593;115844;-87
2022/11/10 00:21:02;;;;;;;3.80;3.50;;;13.20;69.50;;;;;;20684;6710;336344;-89
2022/11/10 00:23:38;;;;;;;3.40;3.20;;;13.50;68.80;;;;;;20825;6597;303845;-89
2022/11/10 00:26:13;;;;;;;3.07;2.93;;;13.90;67.40;;;;;;21021;6715;121656;-90
2022/11/10 00:28:59;;;;;;;3.72;3.42;;;13.90;67.50;;;;;;20787;6719;279723;-85
2022/11/10 00:31:27;;;;;;;3.30;3.03;;;14.10;66.00;;;;;;20622;6722;276980;-89
2022/11/10 00:34:00;;;;;;;2.57;2.37;;;14.40;64.60;;;;;;20974;6734;117554;-90
2022/11/10 00:36:36;;;;;;;2.40;2.20;;;14.20;64.60;;;;;;20952;6737;118411;-89
2022/11/10 00:39:13;;;;;;;2.10;1.70;;;13.90;65.30;;;;;;20990;6730;117336;-89
2022/11/10 00:41:51;;;;;;;2.00;1.90;;;13.70;66.30;;;;;;20820;6723;116875;-90
2022/11/10 00:44:27;;;;;;;3.30;1.97;;;13.50;67.10;;;;;;21046;6704;117110;-90
2022/11/10 00:47:04;;;;;;;3.00;2.10;;;13.30;67.70;;;;;;20783;6716;332529;-90
2022/11/10 00:49:39;;;;;;;1.83;1.65;;;13.60;66.80;;;;;;20728;6740;275776;-89
2022/11/10 00:52:15;;;;;;;1.83;1.73;;;14.00;65.00;;;;;;20950;6736;119012;-90
2022/11/10 00:54:50;;;;;;;1.93;1.73;;;13.90;64.80;;;;;;21023;6721;116553;-86
2022/11/10 00:57:27;;;;;;;2.30;1.73;;;13.70;65.60;;;;;;21015;6721;115962;-89
2022/11/10 01:00:05;;;;;;;3.03;1.80;;;13.40;66.20;;;;;;20971;6719;116197;-90
2022/11/10 01:02:40;;;;;;;2.60;2.00;;;13.30;66.80;;;;;;20800;6719;274718;-89
2022/11/10 01:05:16;;;;;;;2.87;2.07;;;13.50;66.30;;;;;;20810;6719;303587;-90
2022/11/10 01:07:51;;;;;;;2.78;2.12;;;13.80;65.00;;;;;;20809;6719;304129;-90
2022/11/10 01:10:27;;;;;;;4.20;1.70;;;14.10;63.70;;;;;;20932;6719;117143;-90
2022/11/10 01:13:12;;;;;;;3.33;2.13;;;13.90;63.80;;;;;;20950;6709;116382;-96
2022/11/10 01:15:45;;;;;;;2.20;1.87;;;13.60;64.70;;;;;;21056;6710;117432;-88
2022/11/10 01:18:20;;;;;;;2.40;1.90;;;13.30;65.60;;;;;;20995;6724;116923;-89
2022/11/10 01:20:56;;;;;;;3.20;2.10;;;13.10;66.40;;;;;;20940;6710;116454;-89
2022/11/10 01:23:33;;;;;;;2.37;2.17;;;12.90;67.00;;;;;;21051;6723;116969;-87
2022/11/10 01:26:11;;;;;;;1.97;1.87;;;12.80;67.50;;;;;;21030;6720;115866;-89
2022/11/10 01:28:44;;;;;;;2.93;1.70;;;12.60;67.90;;;;;;20986;6734;116134;-89
2022/11/10 01:31:19;;;;;;;2.20;1.53;;;12.50;68.30;;;;;;20870;6719;118122;-89
2022/11/10 01:33:55;;;;;;;1.93;1.70;;;12.40;68.70;;;;;;21083;6701;115960;-91
2022/11/10 01:36:34;;;;;;;3.25;1.77;;;12.40;69.20;;;;;;20768;6701;335442;-95
2022/11/10 01:39:23;;;;;;;;;;;;;;;;;;;;;
2022/11/10 01:42:11;;;;;;;;;;;;;;;;;;;;;
2022/11/10 01:44:24;;;;;;;2.00;1.40;;;13.00;66.80;;;;;;21010;6751;124425;-87
2022/11/10 01:47:00;;;;;;;4.37;1.60;;;13.10;66.80;;;;;;20954;6689;121125;-89
2022/11/10 01:49:36;;;;;;;3.05;2.50;;;13.00;67.20;;;;;;20879;6697;333082;-89
2022/11/10 01:52:11;;;;;;;2.70;2.60;;;13.20;66.50;;;;;;21048;6697;116061;-88
2022/11/10 01:54:48;;;;;;;3.00;2.90;;;13.20;66.50;;;;;;20865;6716;116484;-90
2022/11/10 01:57:30;;;;;;;4.10;3.77;;;13.10;67.00;;;;;;20667;6715;305795;-95
2022/11/10 02:00:03;;;;;;;5.07;2.90;;;13.30;66.60;;;;;;21039;6712;116569;-86
2022/11/10 02:02:45;;;;;;;3.30;3.10;;;13.30;66.30;;;;;;21036;6730;121477;-89
2022/11/10 02:05:20;;;;;;;3.87;2.90;;;13.10;66.40;;;;;;21113;6701;115956;-89
2022/11/10 02:07:56;;;;;;;3.55;3.25;;;12.90;67.00;;;;;;20771;6712;304216;-90
2022/11/10 02:10:32;;;;;;;3.70;3.40;;;13.10;66.70;;;;;;20701;6712;306225;-88
2022/11/10 02:13:07;;;;;;;3.83;2.83;;;13.50;65.50;;;;;;20789;6721;332803;-89
2022/11/10 02:15:43;;;;;;;4.43;2.95;;;13.80;64.20;;;;;;20765;6733;305515;-90
2022/11/10 02:18:18;;;;;;;2.60;2.47;;;14.10;63.30;;;;;;21061;6701;116551;-90
2022/11/10 02:20:54;;;;;;;2.53;2.33;;;13.90;63.60;;;;;;20681;6726;340301;-89
2022/11/10 02:23:30;;;;;;;2.33;2.10;;;14.00;63.60;;;;;;21047;6722;116151;-90
2022/11/10 02:26:05;;;;;;;1.90;1.80;;;13.90;64.00;;;;;;20576;6728;67024;-90
2022/11/10 02:28:41;;;;;;;4.23;1.90;;;13.60;64.60;;;;;;21000;6726;115998;-89
2022/11/10 02:31:16;;;;;;;2.10;2.00;;;13.40;65.40;;;;;;20922;6713;117696;-90
2022/11/10 02:34:01;;;;;;;2.65;2.17;;;13.20;66.00;;;;;;20770;6729;306497;-94
2022/11/10 02:36:27;;;;;;;2.80;2.50;;;13.30;65.10;;;;;;20782;6724;305413;-90
2022/11/10 02:39:04;;;;;;;2.20;2.00;;;13.70;63.60;;;;;;20771;6698;336979;-89
2022/11/10 02:41:49;;;;;;;4.40;2.08;;;13.90;62.30;;;;;;20626;6703;337186;-94
2022/11/10 02:44:17;;;;;;;2.03;1.93;;;14.10;61.20;;;;;;20982;6714;116567;-87
2022/11/10 02:46:52;;;;;;;2.73;1.60;;;13.80;61.60;;;;;;21008;6717;118287;-91
2022/11/10 02:49:29;;;;;;;2.00;1.80;;;13.40;62.70;;;;;;21042;6708;119741;-90
2022/11/10 02:52:04;;;;;;;1.90;1.80;;;13.10;63.80;;;;;;20992;6718;121336;-90
2022/11/10 02:54:40;;;;;;;2.70;1.93;;;12.80;64.70;;;;;;21021;6710;115761;-87
2022/11/10 02:57:15;;;;;;;2.23;1.90;;;12.60;65.40;;;;;;20882;6716;116347;-87
2022/11/10 02:59:51;;;;;;;2.80;1.80;;;12.40;65.90;;;;;;21012;6710;115775;-91
2022/11/10 03:02:28;;;;;;;2.03;1.80;;;12.20;66.10;;;;;;20968;6731;116964;-90
2022/11/10 03:05:04;;;;;;;2.27;2.13;;;12.10;66.60;;;;;;20751;6724;118107;-88
2022/11/10 03:07:40;;;;;;;3.15;2.95;;;12.00;67.00;;;;;;20728;6727;335557;-90
2022/11/10 03:10:15;;;;;;;3.87;2.80;;;12.30;66.60;;;;;;20937;6702;123531;-90
2022/11/10 03:12:54;;;;;;;3.87;3.50;;;12.40;66.40;;;;;;20825;6702;303622;-86
2022/11/10 03:15:30;;;;;;;3.83;3.60;;;12.60;66.00;;;;;;20808;6716;333593;-89
2022/11/10 03:18:07;;;;;;;5.30;3.50;;;13.10;64.90;;;;;;21022;6716;122166;-90
2022/11/10 03:20:42;;;;;;;4.00;3.70;;;13.00;64.80;;;;;;20562;6721;310262;-89
2022/11/10 03:23:18;;;;;;;3.53;3.25;;;13.20;64.70;;;;;;20809;6721;288894;-89
2022/11/10 03:25:55;;;;;;;3.50;3.20;;;13.50;63.80;;;;;;20956;6736;117031;-90
2022/11/10 03:28:32;;;;;;;2.60;2.40;;;13.40;63.80;;;;;;20998;6721;117707;-88
2022/11/10 03:31:07;;;;;;;2.17;2.07;;;13.10;64.60;;;;;;20825;6739;117584;-90
2022/11/10 03:33:49;;;;;;;2.10;2.00;;;12.80;65.40;;;;;;21021;6724;119953;-94
2022/11/10 03:36:19;;;;;;;2.87;2.67;;;12.60;66.10;;;;;;20841;6706;333178;-87
2022/11/10 03:38:55;;;;;;;3.10;2.70;;;12.80;65.60;;;;;;21013;6721;117635;-90
2022/11/10 03:41:32;;;;;;;2.17;2.00;;;12.80;65.50;;;;;;20858;6706;116424;-89
2022/11/10 03:44:08;;;;;;;2.30;2.10;;;12.70;65.90;;;;;;20741;6739;337295;-87
2022/11/10 03:46:46;;;;;;;2.77;1.90;;;12.90;65.00;;;;;;20979;6736;123027;-91
2022/11/10 03:49:22;;;;;;;1.43;1.43;;;12.80;64.60;;;;;;21037;6710;115888;-87
2022/11/10 03:51:58;;;;;;;3.53;1.90;;;12.60;65.20;;;;;;20974;6736;115975;-86
2022/11/10 03:54:33;;;;;;;2.65;2.03;;;12.40;65.70;;;;;;20783;6721;337734;-90
2022/11/10 03:57:09;;;;;;;2.33;2.20;;;12.50;64.50;;;;;;20780;6728;275416;-88
2022/11/10 03:59:44;;;;;;;3.53;2.13;;;12.90;62.60;;;;;;20762;6729;304016;-90
2022/11/10 04:02:20;;;;;;;2.03;1.77;;;13.10;61.40;;;;;;20696;6714;324034;-90
2022/11/10 04:10:52;;;;;;;3.20;2.23;;;13.40;58.70;;;;;;20987;6603;118582;-91
2022/11/10 04:16:23;;;;;;;3.10;2.60;;;12.90;59.50;;;;;;20985;6723;117004;-87
2022/11/10 04:18:59;;;;;;;2.40;2.30;;;12.70;60.20;;;;;;20997;6723;122097;-86
2022/11/10 04:21:35;;;;;;;3.57;2.30;;;12.20;61.00;;;;;;20802;6724;122334;-90
2022/11/10 04:24:10;;;;;;;3.45;2.70;;;12.00;62.00;;;;;;20736;6749;304397;-88
2022/11/10 04:26:48;;;;;;;2.30;2.10;;;12.10;61.80;;;;;;20988;6737;117994;-88
2022/11/10 04:29:43;;;;;;;2.40;2.30;;;12.00;61.80;;;;;;21008;6728;116976;-95
2022/11/10 04:32:18;;;;;;;2.73;2.60;;;11.70;62.40;;;;;;20978;6762;124572;-89
2022/11/10 04:34:54;;;;;;;4.62;4.22;;;11.50;63.20;;;;;;20768;6735;304577;-89
2022/11/10 04:37:29;;;;;;;5.33;4.83;;;11.70;62.70;;;;;;20787;6736;279610;-88
2022/11/10 04:40:15;;;;;;;;;;;;;;;;;;;;;
2022/11/10 04:42:50;;;;;;;5.00;4.70;;;12.00;61.80;;;;;;19132;7383;71814;-95
2022/11/10 04:45:26;;;;;;;3.57;3.27;;;11.70;62.50;;;;;;18987;7409;123134;-95
2022/11/10 04:47:58;;;;;;;2.77;2.60;;;11.50;63.30;;;;;;18957;7405;71185;-94
2022/11/10 04:50:44;;;;;;;;;;;;;;;;;;;;;
2022/11/10 04:53:12;;;;;;;4.25;3.85;;;11.50;63.70;;;;;;18790;7415;300016;-95
2022/11/10 04:55:49;;;;;;;3.40;3.20;;;11.90;62.40;;;;;;20020;6804;120552;-95
2022/11/10 04:58:28;;;;;;;3.30;3.10;;;11.80;62.30;;;;;;20789;6709;303775;-95
2022/11/10 05:01:00;;;;;;;3.70;3.40;;;11.90;62.00;;;;;;20740;6713;277670;-94
2022/11/10 05:03:36;;;;;;;2.43;2.33;;;12.20;60.80;;;;;;20940;6731;117948;-94
2022/11/10 05:06:11;;;;;;;3.93;2.37;;;12.00;61.20;;;;;;20765;6806;121775;-94
2022/11/10 05:08:47;;;;;;;3.37;3.17;;;11.70;62.10;;;;;;20696;6751;306210;-95
2022/11/10 05:11:22;;;;;;;3.23;2.90;;;11.80;61.80;;;;;;20797;6751;119742;-93
2022/11/10 05:13:58;;;;;;;2.97;2.70;;;11.70;61.90;;;;;;21026;6720;115939;-92
2022/11/10 05:16:39;;;;;;;3.37;2.90;;;11.40;62.50;;;;;;21031;6704;118423;-93
2022/11/10 05:19:12;;;;;;;13.18;3.75;;;11.20;63.10;;;;;;20829;6708;305581;-92
2022/11/10 05:21:51;;;;;;;53.93;4.10;;;11.30;62.60;;;;;;20852;6708;117756;-93
2022/11/10 05:24:23;;;;;;;18.27;3.20;;;11.30;62.60;;;;;;20919;6711;118240;-93
2022/11/10 05:27:09;;;;;;;;;;;;;;;;;;;;;
2022/11/10 05:29:38;;;;;;;28.13;3.53;;;11.30;63.40;;;;;;20901;6741;117309;-92
2022/11/10 05:32:10;;;;;;;27.60;3.70;;;11.30;63.40;;;;;;20835;6713;275316;-88
2022/11/10 05:34:56;;;;;;;;;;;;;;;;;;;;;
2022/11/10 05:37:22;;;;;;;21.60;3.70;;;11.80;61.90;;;;;;21020;6712;119316;-93
2022/11/10 05:39:57;;;;;;;80.78;5.35;;;11.70;62.00;;;;;;20691;6729;338894;-93
2022/11/10 05:42:36;;;;;;;36.37;3.47;;;11.70;61.70;;;;;;20961;6725;118162;-94
2022/11/10 05:45:14;;;;;;;8.97;2.63;;;11.60;61.90;;;;;;20888;6752;117244;-93
2022/11/10 05:47:55;;;;;;;27.93;2.87;;;11.30;62.60;;;;;;20960;6722;117190;-93
2022/11/10 05:50:21;;;;;;;31.57;3.00;;;11.10;63.40;;;;;;20808;6747;124031;-87
2022/11/10 05:52:59;;;;;;;25.63;3.10;;;10.90;64.10;;;;;;20886;6739;128918;-93
2022/11/10 05:55:32;;;;;;;7.37;2.43;;;10.80;64.80;;;;;;21021;6721;117167;-88
2022/11/10 05:58:08;;;;;;;44.03;3.30;;;10.70;65.50;;;;;;20951;6723;122264;-92
2022/11/10 06:00:53;;;;;;;;;;;;;;;;;;;;;
2022/11/10 06:03:19;;;;;;;66.13;5.50;;;10.50;66.30;;;;;;20925;6734;125124;-87
2022/11/10 06:05:58;;;;;;;28.70;3.20;;;10.50;66.40;;;;;;21004;6729;117181;-93
2022/11/10 06:08:39;;;;;;;9.80;2.80;;;10.40;66.50;;;;;;20961;6711;118287;-93
2022/11/10 06:11:05;;;;;;;241.18;7.93;;;10.40;66.80;;;;;;20660;6726;335251;-89
2022/11/10 06:13:51;;;;;;;;;;;;;;;;;;;;;
2022/11/10 06:16:17;;;;;;;301.05;9.77;;;10.80;65.00;;;;;;20760;6732;334553;-91
2022/11/10 06:19:01;;;;;;;319.93;8.97;;;11.00;63.00;;;;;;21005;6717;117559;-94
2022/11/10 06:21:28;;;;;;;317.30;9.00;;;11.00;63.10;;;;;;20761;6732;335712;-93
2022/11/10 06:24:03;;;;;;;116.87;5.73;;;11.20;62.20;;;;;;20965;6732;124207;-93
2022/11/10 06:26:46;;;;;;;325.35;8.05;;;11.10;62.20;;;;;;20719;6732;304919;-94
2022/11/10 06:29:25;;;;;;;297.87;8.50;;;11.30;62.10;;;;;;20951;6720;117324;-94
2022/11/10 06:31:52;;;;;;;218.83;7.87;;;11.20;62.10;;;;;;20808;6792;117261;-87
2022/11/10 06:34:27;;;;;;;110.53;5.40;;;11.00;62.70;;;;;;20889;6750;116425;-87
2022/11/10 06:37:03;;;;;;;104.63;4.47;;;10.80;63.30;;;;;;20759;6715;274753;-87
2022/11/10 06:39:48;;;;;;;96.60;4.10;;;11.00;62.30;;;;;;20927;6726;117846;-88
2022/11/10 06:42:14;;;;;;;76.75;3.60;;;10.90;62.50;;;;;;20865;6694;335727;-87
2022/11/10 06:44:50;;;;;;;177.20;5.57;;;11.10;61.80;;;;;;20897;6691;303251;-87
2022/11/10 06:47:26;;;;;;;129.27;4.47;;;11.40;60.00;;;;;;21061;6706;118501;-87
2022/11/10 06:50:01;;;;;;;221.73;6.27;;;11.30;60.30;;;;;;21027;6702;117363;-87
2022/11/10 06:52:38;;;;;;;194.73;6.10;;;11.00;61.40;;;;;;21065;6702;119893;-88
2022/11/10 06:55:16;;;;;;;135.13;4.83;;;10.80;62.40;;;;;;21084;6702;117358;-93
2022/11/10 06:57:49;;;;;;;21.83;1.98;;;10.70;63.10;;;;;;20868;6702;275534;-88
2022/11/10 07:00:25;;;;;;;10.30;1.90;;;10.90;62.30;;;;;;20781;6702;276574;-88
2022/11/10 07:03:09;;;;;;;10.57;7.73;;;11.40;62.00;;;;;;20806;6729;119437;-94
2022/11/10 07:05:39;;;;;;;9.10;7.87;;;11.40;62.00;;;;;;21033;6713;117924;-87
2022/11/10 07:08:15;;;;;;;5.22;4.93;;;11.30;62.80;;;;;;20617;6746;306240;-89
2022/11/10 07:10:50;;;;;;;9.27;1.87;;;11.60;62.10;;;;;;20816;6748;118928;-88
2022/11/10 07:16:15;;;;;;;71.90;3.55;;;11.60;62.50;;;;;;20526;6706;332453;-86
2022/11/10 07:18:42;;;;;;;91.97;3.50;;;11.90;61.00;;;;;;21025;6721;116415;-88
2022/11/10 07:21:17;;;;;;;236.87;6.07;;;11.90;61.20;;;;;;20799;6718;120612;-87
2022/11/10 07:23:53;;;;;;;209.85;6.10;;;11.80;61.70;;;;;;20742;6721;335566;-87
2022/11/10 07:26:29;;;;;;;220.20;5.87;;;12.00;61.20;;;;;;20952;6718;117615;-87
2022/11/10 07:29:04;;;;;;;208.97;5.20;;;12.00;61.20;;;;;;20956;6721;117866;-88
2022/11/10 07:31:49;;;;;;;304.97;7.97;;;11.90;61.80;;;;;;20852;6733;117162;-86
2022/11/10 07:34:15;;;;;;;303.67;7.87;;;11.80;62.40;;;;;;20814;6709;304750;-88
2022/11/10 07:36:51;;;;;;;449.10;9.97;;;12.00;61.60;;;;;;21044;6693;117169;-89
2022/11/10 07:39:26;;;;;;;412.62;8.95;;;12.00;61.60;;;;;;20828;6703;274824;-89
2022/11/10 07:42:02;;;;;;;254.90;6.40;;;12.20;60.70;;;;;;20834;6713;304678;-89
2022/11/10 07:44:38;;;;;;;135.03;4.47;;;12.60;60.30;;;;;;20577;6706;306086;-88
2022/11/10 07:47:14;;;;;;;269.43;7.87;;;12.80;59.70;;;;;;21078;6704;116473;-89
2022/11/10 07:49:50;;;;;;;308.67;8.00;;;12.70;60.00;;;;;;20839;6704;305257;-88
2022/11/10 07:52:25;;;;;;;203.50;6.77;;;12.70;59.90;;;;;;21040;6704;116480;-88
2022/11/10 07:55:01;;;;;;;256.25;7.07;;;12.60;60.60;;;;;;20724;6748;334365;-88
2022/11/10 07:57:37;;;;;;;450.07;10.47;;;12.70;60.70;;;;;;20974;6702;116474;-88
2022/11/10 08:00:13;;;;;;;391.80;9.20;;;12.70;61.00;;;;;;20737;6702;281932;-88
2022/11/10 08:02:48;;;;;;;321.08;8.57;;;12.70;60.20;;;;;;20791;6731;305308;-87
2022/11/10 08:05:24;;;;;;;339.00;8.73;;;12.90;59.40;;;;;;20853;6714;275443;-88
2022/11/10 08:07:59;;;;;;;515.53;12.10;;;13.20;59.30;;;;;;20840;6713;275970;-87
2022/11/10 08:10:35;;;;;;;267.52;7.45;;;13.40;58.50;;;;;;20643;6725;337596;-86
2022/11/10 08:13:11;;;;;;;177.30;7.30;;;13.50;58.30;;;;;;20926;6728;117480;-86
2022/11/10 08:15:46;;;;;;;408.93;9.87;;;13.30;59.10;;;;;;20962;6719;117279;-87
2022/11/10 08:18:22;;;;;;;288.70;8.67;;;13.00;60.20;;;;;;20951;6717;118022;-86
2022/11/10 08:21:10;;;;;;;383.47;10.83;;;12.70;61.10;;;;;;20844;6717;117778;-87
2022/11/10 08:23:39;;;;;;;393.17;10.80;;;12.50;61.90;;;;;;20713;6731;290751;-86
2022/11/10 08:26:16;;;;;;;323.97;8.60;;;12.70;61.70;;;;;;20935;6723;117493;-86
2022/11/10 08:28:50;;;;;;;330.53;9.77;;;12.80;61.80;;;;;;20904;6738;118621;-86
2022/11/10 08:31:27;;;;;;;507.75;13.43;;;12.70;62.30;;;;;;20586;6724;283552;-86
2022/11/10 08:34:03;;;;;;;678.65;16.33;;;12.80;61.80;;;;;;20773;6709;306251;-87
2022/11/10 08:36:38;;;;;;;347.30;10.57;;;13.20;60.50;;;;;;20978;6709;117347;-87
2022/11/10 08:39:14;;;;;;;432.77;11.50;;;13.20;60.70;;;;;;20786;6709;276295;-87
2022/11/10 08:41:49;;;;;;;345.23;8.90;;;13.30;60.30;;;;;;20771;6709;119107;-86
2022/11/10 08:44:35;;;;;;;503.20;13.07;;;13.20;60.60;;;;;;20661;6723;333406;-87
2022/11/10 08:47:11;;;;;;;281.85;9.43;;;13.30;60.00;;;;;;20736;6765;339073;-86
2022/11/10 08:49:47;;;;;;;248.97;9.03;;;13.50;59.40;;;;;;20845;6724;117736;-86
2022/11/10 08:52:23;;;;;;;223.52;7.87;;;13.40;60.00;;;;;;20768;6709;305593;-89
2022/11/10 08:54:59;;;;;;;149.20;6.83;;;13.50;60.30;;;;;;21021;6686;117292;-87
2022/11/10 08:57:34;;;;;;;290.52;8.55;;;13.40;61.60;;;;;;20739;6714;306123;-88
2022/11/10 09:00:10;;;;;;;299.33;10.87;;;13.50;60.90;;;;;;20915;6711;118127;-88
2022/11/10 09:02:46;;;;;;;544.50;14.30;;;13.60;61.20;;;;;;20774;6709;288052;-87
2022/11/10 09:05:22;;;;;;;79.10;5.07;;;13.70;61.00;;;;;;20967;6714;121241;-87
2022/11/10 09:07:58;;;;;;;253.32;8.07;;;13.60;61.10;;;;;;20721;6719;307004;-88
2022/11/10 09:10:33;;;;;;;275.73;8.07;;;13.80;60.70;;;;;;20604;6737;281678;-88
2022/11/10 09:13:10;;;;;;;271.50;9.03;;;14.10;59.80;;;;;;20920;6738;118177;-87
2022/11/10 09:15:46;;;;;;;317.67;9.38;;;14.10;60.20;;;;;;20749;6720;321254;-88
2022/11/10 09:18:23;;;;;;;337.63;10.30;;;14.10;59.90;;;;;;20898;6735;141945;-87
2022/11/10 09:20:59;;;;;;;133.68;6.25;;;14.10;60.20;;;;;;20616;6726;337573;-87
2022/11/10 09:23:35;;;;;;;176.10;6.57;;;14.20;60.30;;;;;;20738;6772;304357;-88
2022/11/10 09:26:11;;;;;;;196.00;7.30;;;14.40;59.90;;;;;;20763;6716;291397;-87
2022/11/10 09:28:46;;;;;;;23.90;3.77;;;14.70;59.80;;;;;;20973;6719;117726;-88
2022/11/10 09:31:22;;;;;;;66.18;4.40;;;14.60;60.30;;;;;;20495;6730;277060;-87
2022/11/10 09:34:03;;;;;;;8.93;3.30;;;14.70;60.50;;;;;;20876;6730;117199;-87
2022/11/10 09:36:33;;;;;;;3.50;3.20;;;14.70;61.00;;;;;;20760;6706;309211;-87
2022/11/10 09:39:18;;;;;;;3.07;2.70;;;14.80;61.00;;;;;;21011;6698;116763;-87
2022/11/10 09:41:44;;;;;;;3.07;2.80;;;14.90;61.30;;;;;;20747;6713;117449;-89
2022/11/10 09:44:26;;;;;;;3.30;3.10;;;14.70;62.50;;;;;;20700;6712;338446;-88
2022/11/10 09:47:02;;;;;;;2.90;2.57;;;14.90;61.30;;;;;;20988;6712;120149;-87
2022/11/10 09:49:44;;;;;;;4.13;2.70;;;15.00;61.60;;;;;;21055;6698;115849;-89
2022/11/10 09:52:19;;;;;;;3.00;2.80;;;14.90;62.10;;;;;;20830;6770;151979;-88
2022/11/10 09:54:58;;;;;;;3.28;2.97;;;14.90;62.50;;;;;;20741;6771;334929;-89
2022/11/10 09:57:44;;;;;;;2.87;2.63;;;15.10;61.40;;;;;;21002;6705;120863;-87
2022/11/10 10:00:13;;;;;;;2.43;2.17;;;15.30;61.40;;;;;;20901;6720;116759;-87
2022/11/10 10:02:55;;;;;;;3.13;2.50;;;15.10;61.70;;;;;;20916;6727;120901;-88
2022/11/10 10:05:47;;;;;;;2.60;2.37;;;15.10;62.20;;;;;;20790;6701;304256;-88
2022/11/10 10:08:39;;;;;;;2.93;2.27;;;15.40;60.90;;;;;;20945;6716;126651;-89
2022/11/10 10:11:34;;;;;;;2.40;2.17;;;15.50;61.00;;;;;;20829;6716;118497;-87
2022/11/10 10:14:16;;;;;;;2.55;2.15;;;15.40;61.30;;;;;;20758;6716;335028;-87
2022/11/10 10:17:01;;;;;;;2.63;1.83;;;15.80;59.00;;;;;;20955;6712;117081;-88
2022/11/10 10:19:50;;;;;;;2.33;1.90;;;15.90;59.30;;;;;;20588;6769;305014;-87
2022/11/10 10:22:29;;;;;;;3.73;1.90;;;16.10;57.10;;;;;;19816;7076;119376;-88
2022/11/10 10:25:05;;;;;;;1.83;1.70;;;16.10;57.70;;;;;;20970;6713;117480;-88
2022/11/10 10:27:41;;;;;;;2.75;1.80;;;16.00;58.40;;;;;;20804;6701;275142;-87
2022/11/10 10:30:17;;;;;;;2.07;1.70;;;16.20;57.20;;;;;;20884;6723;117135;-87
2022/11/10 10:33:02;;;;;;;3.40;1.70;;;16.30;57.80;;;;;;20934;6720;117133;-87
2022/11/10 10:35:38;;;;;;;3.42;1.70;;;16.20;58.30;;;;;;20750;6720;295895;-86
2022/11/10 10:38:03;;;;;;;3.43;1.83;;;16.40;56.10;;;;;;20933;6724;117356;-86
2022/11/10 10:40:39;;;;;;;3.93;1.90;;;16.50;56.70;;;;;;20640;6711;308111;-86
2022/11/10 10:43:17;;;;;;;5.17;1.80;;;16.70;55.70;;;;;;20887;6722;118055;-87
2022/11/10 10:45:52;;;;;;;2.00;1.35;;;16.80;56.40;;;;;;20695;6717;335272;-87
2022/11/10 10:48:28;;;;;;;1.40;1.17;;;16.90;54.10;;;;;;20939;6722;119378;-87
2022/11/10 10:51:04;;;;;;;3.62;1.58;;;16.90;54.60;;;;;;20638;6722;310695;-88
2022/11/10 10:53:47;;;;;;;3.63;1.47;;;17.10;54.50;;;;;;21021;6719;116362;-89
2022/11/10 10:56:36;;;;;;;2.50;1.40;;;17.00;55.00;;;;;;20962;6784;119068;-89
2022/11/10 10:59:09;;;;;;;1.70;1.10;;;16.80;55.30;;;;;;20941;6792;117116;-87
2022/11/10 11:01:44;;;;;;;3.03;1.43;;;16.60;55.20;;;;;;20582;6737;310138;-86
2022/11/10 11:04:34;;;;;;;3.10;1.30;;;16.80;53.00;;;;;;20976;6725;129877;-87
2022/11/10 11:07:21;;;;;;;3.07;1.30;;;16.80;54.00;;;;;;20746;6737;304445;-89
2022/11/10 11:09:56;;;;;;;1.73;1.30;;;17.00;51.90;;;;;;20724;6722;308241;-89
2022/11/10 11:12:32;;;;;;;1.87;0.93;;;17.40;50.00;;;;;;20740;6704;459421;-88
2022/11/10 11:15:17;;;;;;;2.40;1.07;;;17.50;49.10;;;;;;21045;6714;116770;-86
2022/11/10 11:17:53;;;;;;;3.63;1.30;;;17.50;50.50;;;;;;21088;6714;116419;-86
2022/11/10 11:20:46;;;;;;;2.00;1.60;;;17.20;51.60;;;;;;20664;6712;288083;-88
2022/11/10 11:23:07;;;;;;;2.53;1.40;;;17.30;50.90;;;;;;20627;6716;308903;-87
2022/11/10 11:25:44;;;;;;;2.70;1.10;;;17.50;49.00;;;;;;20922;6716;117558;-89
2022/11/10 11:28:29;;;;;;;2.15;1.17;;;17.50;50.20;;;;;;20748;6715;305264;-89
2022/11/10 11:31:14;;;;;;;2.57;1.30;;;17.50;48.10;;;;;;20626;6715;312298;-89
2022/11/10 11:34:00;;;;;;;0.97;0.90;;;17.70;47.60;;;;;;21026;6702;116843;-87
2022/11/10 11:36:42;;;;;;;2.47;1.23;;;17.60;48.90;;;;;;20774;6758;299982;-87
2022/11/10 11:39:31;;;;;;;3.63;1.20;;;17.70;47.40;;;;;;20968;6716;119814;-88
2022/11/10 11:42:32;;;;;;;;;;;;;;;;;;;;;
2022/11/10 11:45:14;;;;;;;2.60;1.07;;;17.30;49.70;;;;;;20973;6716;121886;-87
2022/11/10 11:47:56;;;;;;;3.25;1.35;;;17.10;50.20;;;;;;20765;6758;305068;-90
2022/11/10 11:51:12;;;;;;;2.47;1.50;;;17.20;47.20;;;;;;20620;6715;319559;-89
2022/11/10 11:54:02;;;;;;;5.00;2.03;;;17.50;47.70;;;;;;20746;6717;304676;-87
2022/11/10 11:56:40;;;;;;;3.10;1.55;;;17.80;47.50;;;;;;19372;7122;321230;-89
2022/11/10 11:59:42;;;;;;;4.17;1.40;;;18.00;47.40;;;;;;20679;6773;117439;-91
2022/11/10 12:02:31;;;;;;;9.73;2.93;;;17.90;48.20;;;;;;19579;7113;325565;-86
2022/11/10 12:05:17;;;;;;;3.60;1.50;;;17.80;45.40;;;;;;20535;6786;336054;-92
2022/11/10 12:08:00;;;;;;;3.03;1.17;;;18.00;44.20;;;;;;20484;6773;294618;-87
2022/11/10 12:10:42;;;;;;;2.42;1.30;;;18.10;45.50;;;;;;20716;6718;306513;-93
2022/11/10 12:13:42;;;;;;;1.63;1.30;;;18.30;44.00;;;;;;21038;6707;117284;-88
2022/11/10 12:16:20;;;;;;;1.40;0.73;;;18.10;46.00;;;;;;20988;6718;117037;-89
2022/11/10 12:19:26;;;;;;;3.33;1.70;;;17.60;47.40;;;;;;20935;6768;122087;-90
2022/11/10 12:22:11;;;;;;;1.10;0.93;;;17.40;48.40;;;;;;20922;6729;117949;-91
2022/11/10 12:25:10;;;;;;;2.07;1.20;;;17.10;49.50;;;;;;20907;6739;117023;-88
2022/11/10 12:27:46;;;;;;;2.27;1.20;;;16.90;50.00;;;;;;20892;6744;117206;-93
2022/11/10 12:30:22;;;;;;;1.60;1.20;;;16.70;50.60;;;;;;20923;6708;120806;-90
2022/11/10 12:33:02;;;;;;;2.27;1.10;;;16.50;51.20;;;;;;21102;6711;115812;-90
2022/11/10 12:35:36;;;;;;;2.67;1.43;;;16.50;51.90;;;;;;20765;6707;276916;-89
2022/11/10 12:38:25;;;;;;;3.77;1.80;;;16.70;51.20;;;;;;20696;6730;276294;-87
2022/11/10 12:41:03;;;;;;;3.77;1.40;;;17.20;50.10;;;;;;20767;6788;117815;-89
2022/11/10 12:43:38;;;;;;;1.43;1.03;;;17.30;50.40;;;;;;20549;6826;117145;-88
2022/11/10 12:46:14;;;;;;;2.40;1.15;;;17.20;51.10;;;;;;20674;6746;316771;-88
2022/11/10 12:49:04;;;;;;;1.47;1.00;;;17.40;49.50;;;;;;20927;6726;117620;-87
2022/11/10 12:52:01;;;;;;;;;;;;;;;;;;;;;
2022/11/10 12:54:28;;;;;;;2.47;1.50;;;17.70;48.90;;;;;;20211;6798;291212;-89
2022/11/10 12:57:07;;;;;;;5.23;1.70;;;18.00;48.40;;;;;;20978;6699;116939;-87
2022/11/10 12:59:59;;;;;;;3.70;1.70;;;18.00;49.10;;;;;;20867;6783;119819;-87
2022/11/10 13:02:42;;;;;;;1.90;1.43;;;17.70;49.70;;;;;;20989;6702;117077;-88
2022/11/10 13:05:30;;;;;;;1.53;1.23;;;17.50;50.70;;;;;;20816;6702;282553;-90
2022/11/10 13:08:15;;;;;;;2.35;1.20;;;17.70;49.80;;;;;;20810;6702;274870;-91
2022/11/10 13:11:04;;;;;;;;;;;;;;;;;;;;;
2022/11/10 13:13:31;;;;;;;3.07;1.50;;;18.40;47.60;;;;;;20921;6717;117518;-86
2022/11/10 13:16:06;;;;;;;2.10;1.30;;;18.30;48.70;;;;;;20994;6714;117447;-88
2022/11/10 13:18:42;;;;;;;3.37;1.33;;;18.10;49.80;;;;;;20996;6758;117503;-90
2022/11/10 13:21:17;;;;;;;2.03;1.20;;;17.80;50.40;;;;;;20591;6773;278682;-92
2022/11/10 13:24:03;;;;;;;2.53;0.93;;;18.00;48.70;;;;;;20949;6774;116369;-89
2022/11/10 13:26:39;;;;;;;1.13;1.03;;;18.00;49.50;;;;;;21005;6703;117061;-89
2022/11/10 13:29:34;;;;;;;;;;;;;;;;;;;;;
2022/11/10 13:32:14;;;;;;;1.77;0.80;;;18.00;48.10;;;;;;20948;6721;117077;-88
2022/11/10 13:34:50;;;;;;;1.87;1.30;;;18.00;49.00;;;;;;20517;6786;307726;-89
2022/11/10 13:37:32;;;;;;;3.20;1.30;;;18.10;48.40;;;;;;20858;6721;118285;-89
2022/11/10 13:40:17;;;;;;;3.03;1.20;;;18.10;48.70;;;;;;20868;6726;119037;-89
2022/11/10 13:42:55;;;;;;;2.17;1.10;;;17.90;49.80;;;;;;20646;6726;334906;-87
2022/11/10 13:45:34;;;;;;;2.27;1.00;;;18.00;45.90;;;;;;20912;6780;117338;-88
2022/11/10 13:48:10;;;;;;;2.20;1.20;;;17.80;47.30;;;;;;20740;6724;316087;-89
2022/11/10 13:51:14;;;;;;;1.73;1.00;;;17.90;48.10;;;;;;20838;6724;118352;-86
2022/11/10 13:54:10;;;;;;;1.33;0.87;;;17.90;48.90;;;;;;20945;6733;117921;-86
2022/11/10 13:56:58;;;;;;;1.33;0.83;;;17.60;49.60;;;;;;20962;6708;116231;-90